sensor_id;sensor_type;location;lat;lon;timestamp;temperature;humidity
19799;DHT22;10059;59.850;10.454;2023-02-21T00:00:10;6.80;99.90
19799;DHT22;10059;59.850;10.454;2023-02-21T00:02:54;6.80;99.90
19799;DHT22;10059;59.850;10.454;2023-02-21T00:05:39;6.80;99.90
19799;DHT22;10059;59.850;10.454;2023-02-21T00:08:23;6.80;99.90
19799;DHT22;10059;59.850;10.454;2023-02-21T00:11:07;6.80;99.90
19799;DHT22;10059;59.850;10.454;2023-02-21T00:13:52;6.90;99.90
19799;DHT22;10059;59.850;10.454;2023-02-21T00:16:37;6.90;99.90
19799;DHT22;10059;59.850;10.454;2023-02-21T00:19:21;6.90;99.90
19799;DHT22;10059;59.850;10.454;2023-02-21T00:22:05;6.90;99.90
19799;DHT22;10059;59.850;10.454;2023-02-21T00:24:49;6.90;99.90
19799;DHT22;10059;59.850;10.454;2023-02-21T00:27:33;6.90;99.90
19799;DHT22;10059;59.850;10.454;2023-02-21T00:30:19;6.80;99.90
19799;DHT22;10059;59.850;10.454;2023-02-21T00:33:04;6.80;99.90
19799;DHT22;10059;59.850;10.454;2023-02-21T00:35:48;6.70;99.90
19799;DHT22;10059;59.850;10.454;2023-02-21T00:38:32;6.60;99.90
19799;DHT22;10059;59.850;10.454;2023-02-21T00:41:16;6.60;99.90
19799;DHT22;10059;59.850;10.454;2023-02-21T00:44:00;6.60;99.90
19799;DHT22;10059;59.850;10.454;2023-02-21T00:46:46;6.50;99.90
19799;DHT22;10059;59.850;10.454;2023-02-21T00:49:30;6.50;99.90
19799;DHT22;10059;59.850;10.454;2023-02-21T00:52:14;6.50;99.90
19799;DHT22;10059;59.850;10.454;2023-02-21T00:54:58;6.50;99.90
19799;DHT22;10059;59.850;10.454;2023-02-21T00:57:42;6.50;99.90
19799;DHT22;10059;59.850;10.454;2023-02-21T01:00:27;6.40;99.90
19799;DHT22;10059;59.850;10.454;2023-02-21T01:03:12;6.50;99.90
19799;DHT22;10059;59.850;10.454;2023-02-21T01:05:57;6.40;99.90
19799;DHT22;10059;59.850;10.454;2023-02-21T01:08:42;6.40;99.90
19799;DHT22;10059;59.850;10.454;2023-02-21T01:11:27;6.40;99.90
19799;DHT22;10059;59.850;10.454;2023-02-21T01:14:11;6.50;99.90
19799;DHT22;10059;59.850;10.454;2023-02-21T01:16:56;6.30;99.90
19799;DHT22;10059;59.850;10.454;2023-02-21T01:19:42;6.30;99.90
19799;DHT22;10059;59.850;10.454;2023-02-21T01:22:26;6.30;99.90
19799;DHT22;10059;59.850;10.454;2023-02-21T01:25:10;6.30;99.90
19799;DHT22;10059;59.850;10.454;2023-02-21T01:27:54;6.20;99.90
19799;DHT22;10059;59.850;10.454;2023-02-21T01:30:39;6.30;99.90
19799;DHT22;10059;59.850;10.454;2023-02-21T01:33:23;6.20;99.90
19799;DHT22;10059;59.850;10.454;2023-02-21T01:36:09;6.10;99.90
19799;DHT22;10059;59.850;10.454;2023-02-21T01:38:54;6.10;99.90
19799;DHT22;10059;59.850;10.454;2023-02-21T01:41:38;6.20;99.90
19799;DHT22;10059;59.850;10.454;2023-02-21T01:44:32;6.10;99.90
19799;DHT22;10059;59.850;10.454;2023-02-21T01:47:17;5.90;99.90
19799;DHT22;10059;59.850;10.454;2023-02-21T01:50:06;5.60;99.90
19799;DHT22;10059;59.850;10.454;2023-02-21T01:52:53;5.30;99.90
19799;DHT22;10059;59.850;10.454;2023-02-21T01:55:39;5.20;99.90
19799;DHT22;10059;59.850;10.454;2023-02-21T01:58:26;5.10;99.90
19799;DHT22;10059;59.850;10.454;2023-02-21T02:01:19;5.00;99.90
19799;DHT22;10059;59.850;10.454;2023-02-21T02:04:05;4.90;99.90
19799;DHT22;10059;59.850;10.454;2023-02-21T02:06:50;4.70;99.90
19799;DHT22;10059;59.850;10.454;2023-02-21T02:09:35;4.60;99.90
19799;DHT22;10059;59.850;10.454;2023-02-21T02:12:32;4.40;99.90
19799;DHT22;10059;59.850;10.454;2023-02-21T02:15:10;4.30;99.90
19799;DHT22;10059;59.850;10.454;2023-02-21T02:17:47;4.20;99.90
19799;DHT22;10059;59.850;10.454;2023-02-21T02:20:50;4.30;99.90
19799;DHT22;10059;59.850;10.454;2023-02-21T02:23:38;4.20;99.90
19799;DHT22;10059;59.850;10.454;2023-02-21T02:26:55;4.10;99.90
19799;DHT22;10059;59.850;10.454;2023-02-21T02:29:50;4.10;99.90
19799;DHT22;10059;59.850;10.454;2023-02-21T02:32:56;4.20;99.90
19799;DHT22;10059;59.850;10.454;2023-02-21T02:35:28;4.30;99.90
19799;DHT22;10059;59.850;10.454;2023-02-21T02:37:58;4.30;99.90
19799;DHT22;10059;59.850;10.454;2023-02-21T02:40:33;4.30;99.90
19799;DHT22;10059;59.850;10.454;2023-02-21T02:43:08;4.40;99.90
19799;DHT22;10059;59.850;10.454;2023-02-21T02:45:42;4.50;99.90
19799;DHT22;10059;59.850;10.454;2023-02-21T02:48:14;4.60;99.90
19799;DHT22;10059;59.850;10.454;2023-02-21T02:50:46;4.60;99.90
19799;DHT22;10059;59.850;10.454;2023-02-21T02:53:18;4.80;99.90
19799;DHT22;10059;59.850;10.454;2023-02-21T02:55:48;4.90;99.90
19799;DHT22;10059;59.850;10.454;2023-02-21T02:58:19;5.00;99.90
19799;DHT22;10059;59.850;10.454;2023-02-21T03:00:56;5.10;99.90
19799;DHT22;10059;59.850;10.454;2023-02-21T03:03:41;5.20;99.90
19799;DHT22;10059;59.850;10.454;2023-02-21T03:06:21;5.50;99.90
19799;DHT22;10059;59.850;10.454;2023-02-21T03:08:52;5.70;99.90
19799;DHT22;10059;59.850;10.454;2023-02-21T03:11:24;5.80;99.90
19799;DHT22;10059;59.850;10.454;2023-02-21T03:13:55;5.90;99.90
19799;DHT22;10059;59.850;10.454;2023-02-21T03:16:26;5.80;99.90
19799;DHT22;10059;59.850;10.454;2023-02-21T03:18:57;5.80;99.90
19799;DHT22;10059;59.850;10.454;2023-02-21T03:21:29;5.70;99.90
19799;DHT22;10059;59.850;10.454;2023-02-21T03:24:01;5.60;99.90
19799;DHT22;10059;59.850;10.454;2023-02-21T03:26:33;5.50;99.90
19799;DHT22;10059;59.850;10.454;2023-02-21T03:29:03;5.50;99.90
19799;DHT22;10059;59.850;10.454;2023-02-21T03:31:34;5.20;99.90
19799;DHT22;10059;59.850;10.454;2023-02-21T03:34:02;5.00;99.90
19799;DHT22;10059;59.850;10.454;2023-02-21T03:36:31;4.90;99.90
19799;DHT22;10059;59.850;10.454;2023-02-21T03:38:58;4.70;99.90
19799;DHT22;10059;59.850;10.454;2023-02-21T03:41:24;4.70;99.90
19799;DHT22;10059;59.850;10.454;2023-02-21T03:43:51;4.60;99.90
19799;DHT22;10059;59.850;10.454;2023-02-21T03:46:19;4.40;99.90
19799;DHT22;10059;59.850;10.454;2023-02-21T03:48:45;4.20;99.90
19799;DHT22;10059;59.850;10.454;2023-02-21T03:51:12;4.20;99.90
19799;DHT22;10059;59.850;10.454;2023-02-21T03:53:41;4.30;99.90
19799;DHT22;10059;59.850;10.454;2023-02-21T03:56:07;4.40;99.90
19799;DHT22;10059;59.850;10.454;2023-02-21T03:58:34;4.40;99.90
19799;DHT22;10059;59.850;10.454;2023-02-21T04:01:01;4.40;99.90
19799;DHT22;10059;59.850;10.454;2023-02-21T04:03:29;4.40;99.90
19799;DHT22;10059;59.850;10.454;2023-02-21T04:05:56;4.50;99.90
19799;DHT22;10059;59.850;10.454;2023-02-21T04:08:23;4.50;99.90
19799;DHT22;10059;59.850;10.454;2023-02-21T04:10:51;4.70;99.90
19799;DHT22;10059;59.850;10.454;2023-02-21T04:13:18;4.70;99.90
19799;DHT22;10059;59.850;10.454;2023-02-21T04:15:45;4.80;99.90
19799;DHT22;10059;59.850;10.454;2023-02-21T04:18:11;4.80;99.90
19799;DHT22;10059;59.850;10.454;2023-02-21T04:20:38;5.00;99.90
19799;DHT22;10059;59.850;10.454;2023-02-21T04:23:05;5.00;99.90
19799;DHT22;10059;59.850;10.454;2023-02-21T04:25:32;5.00;99.90
19799;DHT22;10059;59.850;10.454;2023-02-21T04:28:00;5.10;99.90
19799;DHT22;10059;59.850;10.454;2023-02-21T04:30:27;4.90;99.90
19799;DHT22;10059;59.850;10.454;2023-02-21T04:32:54;4.80;99.90
19799;DHT22;10059;59.850;10.454;2023-02-21T04:35:21;4.90;99.90
19799;DHT22;10059;59.850;10.454;2023-02-21T04:37:48;4.90;99.90
19799;DHT22;10059;59.850;10.454;2023-02-21T04:40:15;4.80;99.90
19799;DHT22;10059;59.850;10.454;2023-02-21T04:42:42;4.70;99.90
19799;DHT22;10059;59.850;10.454;2023-02-21T04:45:10;4.60;99.90
19799;DHT22;10059;59.850;10.454;2023-02-21T04:47:37;4.60;99.90
19799;DHT22;10059;59.850;10.454;2023-02-21T04:50:04;4.60;99.90
19799;DHT22;10059;59.850;10.454;2023-02-21T04:52:31;4.60;99.90
19799;DHT22;10059;59.850;10.454;2023-02-21T04:54:58;4.50;99.90
19799;DHT22;10059;59.850;10.454;2023-02-21T04:57:25;4.50;99.90
19799;DHT22;10059;59.850;10.454;2023-02-21T04:59:56;4.60;99.90
19799;DHT22;10059;59.850;10.454;2023-02-21T05:02:24;4.60;99.90
19799;DHT22;10059;59.850;10.454;2023-02-21T05:04:51;4.70;99.90
19799;DHT22;10059;59.850;10.454;2023-02-21T05:07:19;4.60;99.90
19799;DHT22;10059;59.850;10.454;2023-02-21T05:09:46;4.50;99.90
19799;DHT22;10059;59.850;10.454;2023-02-21T05:12:12;4.40;99.90
19799;DHT22;10059;59.850;10.454;2023-02-21T05:14:39;4.40;99.90
19799;DHT22;10059;59.850;10.454;2023-02-21T05:17:08;4.40;99.90
19799;DHT22;10059;59.850;10.454;2023-02-21T05:19:42;4.30;99.90
19799;DHT22;10059;59.850;10.454;2023-02-21T05:22:09;4.20;99.90
19799;DHT22;10059;59.850;10.454;2023-02-21T05:24:40;4.30;99.90
19799;DHT22;10059;59.850;10.454;2023-02-21T05:27:08;4.20;99.90
19799;DHT22;10059;59.850;10.454;2023-02-21T05:29:35;4.20;99.90
19799;DHT22;10059;59.850;10.454;2023-02-21T05:32:03;4.10;99.90
19799;DHT22;10059;59.850;10.454;2023-02-21T05:34:30;4.10;99.90
19799;DHT22;10059;59.850;10.454;2023-02-21T05:36:58;4.20;99.90
19799;DHT22;10059;59.850;10.454;2023-02-21T05:39:25;4.20;99.90
19799;DHT22;10059;59.850;10.454;2023-02-21T05:41:51;4.20;99.90
19799;DHT22;10059;59.850;10.454;2023-02-21T05:44:18;4.30;99.90
19799;DHT22;10059;59.850;10.454;2023-02-21T05:46:45;4.20;99.90
19799;DHT22;10059;59.850;10.454;2023-02-21T05:49:13;4.20;99.90
19799;DHT22;10059;59.850;10.454;2023-02-21T05:51:41;4.30;99.90
19799;DHT22;10059;59.850;10.454;2023-02-21T05:54:13;4.30;99.90
19799;DHT22;10059;59.850;10.454;2023-02-21T05:56:42;4.40;99.90
19799;DHT22;10059;59.850;10.454;2023-02-21T05:59:10;4.40;99.90
19799;DHT22;10059;59.850;10.454;2023-02-21T06:01:37;4.30;99.90
19799;DHT22;10059;59.850;10.454;2023-02-21T06:04:05;4.30;99.90
19799;DHT22;10059;59.850;10.454;2023-02-21T06:06:32;4.20;99.90
19799;DHT22;10059;59.850;10.454;2023-02-21T06:08:59;4.10;99.90
19799;DHT22;10059;59.850;10.454;2023-02-21T06:11:29;4.00;99.90
19799;DHT22;10059;59.850;10.454;2023-02-21T06:13:59;3.90;99.90
19799;DHT22;10059;59.850;10.454;2023-02-21T06:16:32;3.80;99.90
19799;DHT22;10059;59.850;10.454;2023-02-21T06:18:59;3.70;99.90
19799;DHT22;10059;59.850;10.454;2023-02-21T06:21:27;3.70;99.90
19799;DHT22;10059;59.850;10.454;2023-02-21T06:23:54;3.70;99.90
19799;DHT22;10059;59.850;10.454;2023-02-21T06:26:21;3.60;99.90
19799;DHT22;10059;59.850;10.454;2023-02-21T06:28:50;3.50;99.90
19799;DHT22;10059;59.850;10.454;2023-02-21T06:31:18;3.50;99.90
19799;DHT22;10059;59.850;10.454;2023-02-21T06:33:45;3.50;99.90
19799;DHT22;10059;59.850;10.454;2023-02-21T06:36:15;3.50;99.90
19799;DHT22;10059;59.850;10.454;2023-02-21T06:38:43;3.50;99.90
19799;DHT22;10059;59.850;10.454;2023-02-21T06:41:10;3.50;99.90
19799;DHT22;10059;59.850;10.454;2023-02-21T06:43:40;3.50;99.90
19799;DHT22;10059;59.850;10.454;2023-02-21T06:46:08;3.50;99.90
19799;DHT22;10059;59.850;10.454;2023-02-21T06:48:35;3.50;99.90
19799;DHT22;10059;59.850;10.454;2023-02-21T06:51:01;3.60;99.90
19799;DHT22;10059;59.850;10.454;2023-02-21T06:53:30;3.50;99.90
19799;DHT22;10059;59.850;10.454;2023-02-21T06:55:56;3.30;99.90
19799;DHT22;10059;59.850;10.454;2023-02-21T06:58:23;3.30;99.90
19799;DHT22;10059;59.850;10.454;2023-02-21T07:00:50;3.10;99.90
19799;DHT22;10059;59.850;10.454;2023-02-21T07:03:18;3.20;99.90
19799;DHT22;10059;59.850;10.454;2023-02-21T07:05:45;3.30;99.90
19799;DHT22;10059;59.850;10.454;2023-02-21T07:08:12;3.10;99.90
19799;DHT22;10059;59.850;10.454;2023-02-21T07:10:39;3.10;99.90
19799;DHT22;10059;59.850;10.454;2023-02-21T07:13:06;3.40;99.90
19799;DHT22;10059;59.850;10.454;2023-02-21T07:15:32;3.60;99.90
19799;DHT22;10059;59.850;10.454;2023-02-21T07:17:59;3.90;99.90
19799;DHT22;10059;59.850;10.454;2023-02-21T07:20:27;4.70;99.90
19799;DHT22;10059;59.850;10.454;2023-02-21T07:22:55;5.20;99.90
19799;DHT22;10059;59.850;10.454;2023-02-21T07:25:22;5.80;99.90
19799;DHT22;10059;59.850;10.454;2023-02-21T07:27:49;6.30;99.90
19799;DHT22;10059;59.850;10.454;2023-02-21T07:30:17;6.60;99.90
19799;DHT22;10059;59.850;10.454;2023-02-21T07:32:44;6.40;99.90
19799;DHT22;10059;59.850;10.454;2023-02-21T07:35:11;6.50;99.90
19799;DHT22;10059;59.850;10.454;2023-02-21T07:37:39;6.40;99.90
19799;DHT22;10059;59.850;10.454;2023-02-21T07:40:07;6.50;99.90
19799;DHT22;10059;59.850;10.454;2023-02-21T07:42:34;6.30;99.90
19799;DHT22;10059;59.850;10.454;2023-02-21T07:45:01;6.30;99.90
19799;DHT22;10059;59.850;10.454;2023-02-21T07:47:27;6.80;99.90
19799;DHT22;10059;59.850;10.454;2023-02-21T07:49:54;7.30;98.20
19799;DHT22;10059;59.850;10.454;2023-02-21T07:52:21;7.50;98.70
19799;DHT22;10059;59.850;10.454;2023-02-21T07:54:50;7.30;98.30
19799;DHT22;10059;59.850;10.454;2023-02-21T07:57:17;7.50;97.00
19799;DHT22;10059;59.850;10.454;2023-02-21T07:59:44;7.70;97.60
19799;DHT22;10059;59.850;10.454;2023-02-21T08:02:11;7.70;96.20
19799;DHT22;10059;59.850;10.454;2023-02-21T08:04:38;7.60;97.00
19799;DHT22;10059;59.850;10.454;2023-02-21T08:07:05;7.70;96.70
19799;DHT22;10059;59.850;10.454;2023-02-21T08:09:33;7.80;95.60
19799;DHT22;10059;59.850;10.454;2023-02-21T08:12:02;7.50;96.00
19799;DHT22;10059;59.850;10.454;2023-02-21T08:14:29;7.40;95.80
19799;DHT22;10059;59.850;10.454;2023-02-21T08:16:56;7.70;95.60
19799;DHT22;10059;59.850;10.454;2023-02-21T08:19:23;8.60;95.10
19799;DHT22;10059;59.850;10.454;2023-02-21T08:21:49;9.20;93.20
19799;DHT22;10059;59.850;10.454;2023-02-21T08:24:17;10.10;93.50
19799;DHT22;10059;59.850;10.454;2023-02-21T08:26:44;9.80;91.20
19799;DHT22;10059;59.850;10.454;2023-02-21T08:29:13;9.20;91.50
19799;DHT22;10059;59.850;10.454;2023-02-21T08:31:42;9.10;91.90
19799;DHT22;10059;59.850;10.454;2023-02-21T08:34:10;9.20;92.70
19799;DHT22;10059;59.850;10.454;2023-02-21T08:36:39;8.60;92.40
19799;DHT22;10059;59.850;10.454;2023-02-21T08:39:07;7.80;93.70
19799;DHT22;10059;59.850;10.454;2023-02-21T08:41:35;7.60;94.40
19799;DHT22;10059;59.850;10.454;2023-02-21T08:44:03;7.20;95.40
19799;DHT22;10059;59.850;10.454;2023-02-21T08:46:31;7.30;95.50
19799;DHT22;10059;59.850;10.454;2023-02-21T08:48:58;7.70;95.40
19799;DHT22;10059;59.850;10.454;2023-02-21T08:51:26;8.20;95.60
19799;DHT22;10059;59.850;10.454;2023-02-21T08:53:53;8.80;93.50
19799;DHT22;10059;59.850;10.454;2023-02-21T08:56:20;9.70;93.20
19799;DHT22;10059;59.850;10.454;2023-02-21T08:58:47;10.60;91.70
19799;DHT22;10059;59.850;10.454;2023-02-21T09:01:15;11.30;90.90
19799;DHT22;10059;59.850;10.454;2023-02-21T09:03:43;10.90;90.60
19799;DHT22;10059;59.850;10.454;2023-02-21T09:06:10;11.80;89.80
19799;DHT22;10059;59.850;10.454;2023-02-21T09:08:37;12.00;89.30
19799;DHT22;10059;59.850;10.454;2023-02-21T09:11:05;12.30;87.70
19799;DHT22;10059;59.850;10.454;2023-02-21T09:13:33;12.00;85.20
19799;DHT22;10059;59.850;10.454;2023-02-21T09:16:01;12.20;86.80
19799;DHT22;10059;59.850;10.454;2023-02-21T09:18:29;11.50;86.90
19799;DHT22;10059;59.850;10.454;2023-02-21T09:20:57;10.60;87.60
19799;DHT22;10059;59.850;10.454;2023-02-21T09:23:26;10.10;90.10
19799;DHT22;10059;59.850;10.454;2023-02-21T09:25:53;9.50;90.90
19799;DHT22;10059;59.850;10.454;2023-02-21T09:28:21;9.40;90.50
19799;DHT22;10059;59.850;10.454;2023-02-21T09:30:48;9.00;91.50
19799;DHT22;10059;59.850;10.454;2023-02-21T09:33:16;9.60;91.70
19799;DHT22;10059;59.850;10.454;2023-02-21T09:35:42;10.00;90.50
19799;DHT22;10059;59.850;10.454;2023-02-21T09:38:11;10.70;89.80
19799;DHT22;10059;59.850;10.454;2023-02-21T09:40:41;11.40;87.00
19799;DHT22;10059;59.850;10.454;2023-02-21T09:43:13;11.60;86.30
19799;DHT22;10059;59.850;10.454;2023-02-21T09:45:40;11.70;86.30
19799;DHT22;10059;59.850;10.454;2023-02-21T09:48:11;12.60;85.90
19799;DHT22;10059;59.850;10.454;2023-02-21T09:50:41;13.10;83.60
19799;DHT22;10059;59.850;10.454;2023-02-21T09:53:13;12.90;80.80
19799;DHT22;10059;59.850;10.454;2023-02-21T09:55:42;12.90;83.00
19799;DHT22;10059;59.850;10.454;2023-02-21T09:58:11;13.40;80.70
19799;DHT22;10059;59.850;10.454;2023-02-21T10:00:38;13.90;81.40
19799;DHT22;10059;59.850;10.454;2023-02-21T10:06:09;14.70;79.40
19799;DHT22;10059;59.850;10.454;2023-02-21T10:08:43;14.60;75.30
19799;DHT22;10059;59.850;10.454;2023-02-21T10:11:27;15.10;76.70
19799;DHT22;10059;59.850;10.454;2023-02-21T10:14:05;15.30;74.00
19799;DHT22;10059;59.850;10.454;2023-02-21T10:16:39;15.40;73.90
19799;DHT22;10059;59.850;10.454;2023-02-21T10:19:15;15.70;72.20
19799;DHT22;10059;59.850;10.454;2023-02-21T10:21:46;16.00;71.60
19799;DHT22;10059;59.850;10.454;2023-02-21T10:24:16;16.30;69.60
19799;DHT22;10059;59.850;10.454;2023-02-21T10:26:49;16.00;68.50
19799;DHT22;10059;59.850;10.454;2023-02-21T10:29:21;16.40;67.80
19799;DHT22;10059;59.850;10.454;2023-02-21T10:31:51;17.00;67.90
19799;DHT22;10059;59.850;10.454;2023-02-21T10:34:23;17.00;67.20
19799;DHT22;10059;59.850;10.454;2023-02-21T10:36:52;16.70;66.30
19799;DHT22;10059;59.850;10.454;2023-02-21T10:39:23;17.20;65.40
19799;DHT22;10059;59.850;10.454;2023-02-21T10:41:54;17.20;65.40
19799;DHT22;10059;59.850;10.454;2023-02-21T10:44:25;17.00;64.30
19799;DHT22;10059;59.850;10.454;2023-02-21T10:46:57;17.00;65.30
19799;DHT22;10059;59.850;10.454;2023-02-21T10:49:29;17.80;63.40
19799;DHT22;10059;59.850;10.454;2023-02-21T10:52:09;17.80;62.00
19799;DHT22;10059;59.850;10.454;2023-02-21T10:54:38;17.50;62.00
19799;DHT22;10059;59.850;10.454;2023-02-21T10:57:07;17.20;61.00
19799;DHT22;10059;59.850;10.454;2023-02-21T10:59:39;16.80;61.40
19799;DHT22;10059;59.850;10.454;2023-02-21T11:02:25;16.40;63.00
19799;DHT22;10059;59.850;10.454;2023-02-21T11:04:54;16.70;62.40
19799;DHT22;10059;59.850;10.454;2023-02-21T11:07:22;16.80;62.50
19799;DHT22;10059;59.850;10.454;2023-02-21T11:09:50;16.20;64.00
19799;DHT22;10059;59.850;10.454;2023-02-21T11:12:20;15.80;62.60
19799;DHT22;10059;59.850;10.454;2023-02-21T11:15:04;16.10;62.00
19799;DHT22;10059;59.850;10.454;2023-02-21T11:17:31;17.30;61.50
19799;DHT22;10059;59.850;10.454;2023-02-21T11:20:03;17.70;60.20
19799;DHT22;10059;59.850;10.454;2023-02-21T11:22:37;17.60;60.00
19799;DHT22;10059;59.850;10.454;2023-02-21T11:25:19;15.70;59.70
19799;DHT22;10059;59.850;10.454;2023-02-21T11:28:02;14.90;62.10
19799;DHT22;10059;59.850;10.454;2023-02-21T11:30:31;15.60;61.50
19799;DHT22;10059;59.850;10.454;2023-02-21T11:32:59;16.60;60.40
19799;DHT22;10059;59.850;10.454;2023-02-21T11:35:32;15.70;60.80
19799;DHT22;10059;59.850;10.454;2023-02-21T11:38:02;14.10;62.90
19799;DHT22;10059;59.850;10.454;2023-02-21T11:40:39;14.50;62.20
19799;DHT22;10059;59.850;10.454;2023-02-21T11:43:25;12.10;66.30
19799;DHT22;10059;59.850;10.454;2023-02-21T11:46:04;12.90;66.80
19799;DHT22;10059;59.850;10.454;2023-02-21T11:48:37;12.50;66.60
19799;DHT22;10059;59.850;10.454;2023-02-21T11:51:12;12.70;67.40
19799;DHT22;10059;59.850;10.454;2023-02-21T11:53:42;12.80;67.60
19799;DHT22;10059;59.850;10.454;2023-02-21T11:56:17;12.70;67.90
19799;DHT22;10059;59.850;10.454;2023-02-21T11:58:55;11.20;70.10
19799;DHT22;10059;59.850;10.454;2023-02-21T12:01:26;12.30;70.90
19799;DHT22;10059;59.850;10.454;2023-02-21T12:04:15;11.20;70.90
19799;DHT22;10059;59.850;10.454;2023-02-21T12:06:48;11.00;73.30
19799;DHT22;10059;59.850;10.454;2023-02-21T12:09:24;12.30;72.50
19799;DHT22;10059;59.850;10.454;2023-02-21T12:12:04;12.30;71.40
19799;DHT22;10059;59.850;10.454;2023-02-21T12:14:47;11.80;70.80
19799;DHT22;10059;59.850;10.454;2023-02-21T12:17:31;11.10;72.50
19799;DHT22;10059;59.850;10.454;2023-02-21T12:20:14;11.10;72.80
19799;DHT22;10059;59.850;10.454;2023-02-21T12:22:57;10.40;73.40
19799;DHT22;10059;59.850;10.454;2023-02-21T12:25:31;10.40;80.40
19799;DHT22;10059;59.850;10.454;2023-02-21T12:28:04;11.00;76.30
19799;DHT22;10059;59.850;10.454;2023-02-21T12:33:43;10.30;78.20
19799;DHT22;10059;59.850;10.454;2023-02-21T12:36:19;10.30;78.40
19799;DHT22;10059;59.850;10.454;2023-02-21T12:39:02;11.00;76.60
19799;DHT22;10059;59.850;10.454;2023-02-21T12:41:47;10.40;77.10
19799;DHT22;10059;59.850;10.454;2023-02-21T12:44:19;9.70;77.80
19799;DHT22;10059;59.850;10.454;2023-02-21T12:46:51;9.30;79.30
19799;DHT22;10059;59.850;10.454;2023-02-21T12:49:23;9.70;76.90
19799;DHT22;10059;59.850;10.454;2023-02-21T12:51:57;10.60;77.20
19799;DHT22;10059;59.850;10.454;2023-02-21T12:54:35;10.90;73.80
19799;DHT22;10059;59.850;10.454;2023-02-21T12:57:07;12.20;72.40
19799;DHT22;10059;59.850;10.454;2023-02-21T12:59:45;13.00;70.30
19799;DHT22;10059;59.850;10.454;2023-02-21T13:02:18;13.60;68.70
19799;DHT22;10059;59.850;10.454;2023-02-21T13:04:51;11.30;69.40
19799;DHT22;10059;59.850;10.454;2023-02-21T13:07:23;11.10;72.40
19799;DHT22;10059;59.850;10.454;2023-02-21T13:09:54;11.00;73.20
19799;DHT22;10059;59.850;10.454;2023-02-21T13:12:28;10.60;76.30
19799;DHT22;10059;59.850;10.454;2023-02-21T13:15:01;9.70;78.40
19799;DHT22;10059;59.850;10.454;2023-02-21T13:17:29;9.40;78.30
19799;DHT22;10059;59.850;10.454;2023-02-21T13:20:00;10.10;78.40
19799;DHT22;10059;59.850;10.454;2023-02-21T13:22:48;9.50;78.30
19799;DHT22;10059;59.850;10.454;2023-02-21T13:25:43;8.90;79.60
19799;DHT22;10059;59.850;10.454;2023-02-21T13:28:15;9.20;78.70
19799;DHT22;10059;59.850;10.454;2023-02-21T13:30:49;8.50;80.40
19799;DHT22;10059;59.850;10.454;2023-02-21T13:33:24;8.70;81.10
19799;DHT22;10059;59.850;10.454;2023-02-21T13:35:51;9.00;79.60
19799;DHT22;10059;59.850;10.454;2023-02-21T13:38:19;9.20;78.70
19799;DHT22;10059;59.850;10.454;2023-02-21T13:40:51;9.20;78.10
19799;DHT22;10059;59.850;10.454;2023-02-21T13:43:22;8.20;80.70
19799;DHT22;10059;59.850;10.454;2023-02-21T13:45:51;8.80;80.50
19799;DHT22;10059;59.850;10.454;2023-02-21T13:48:24;7.90;81.80
19799;DHT22;10059;59.850;10.454;2023-02-21T13:50:53;8.80;81.60
19799;DHT22;10059;59.850;10.454;2023-02-21T13:53:22;8.40;82.30
19799;DHT22;10059;59.850;10.454;2023-02-21T13:56:17;8.90;82.80
19799;DHT22;10059;59.850;10.454;2023-02-21T13:58:45;9.10;82.20
19799;DHT22;10059;59.850;10.454;2023-02-21T14:04:49;9.10;78.30
19799;DHT22;10059;59.850;10.454;2023-02-21T14:07:49;9.20;79.40
19799;DHT22;10059;59.850;10.454;2023-02-21T14:10:39;9.20;80.20
19799;DHT22;10059;59.850;10.454;2023-02-21T14:13:18;8.70;81.20
19799;DHT22;10059;59.850;10.454;2023-02-21T14:15:49;8.20;81.90
19799;DHT22;10059;59.850;10.454;2023-02-21T14:18:21;8.20;83.60
19799;DHT22;10059;59.850;10.454;2023-02-21T14:20:52;8.20;85.60
19799;DHT22;10059;59.850;10.454;2023-02-21T14:23:22;7.70;84.20
19799;DHT22;10059;59.850;10.454;2023-02-21T14:25:57;7.80;84.00
19799;DHT22;10059;59.850;10.454;2023-02-21T14:28:58;7.10;86.10
19799;DHT22;10059;59.850;10.454;2023-02-21T14:31:49;6.50;88.30
19799;DHT22;10059;59.850;10.454;2023-02-21T14:34:25;6.60;90.80
19799;DHT22;10059;59.850;10.454;2023-02-21T14:36:57;6.70;89.70
19799;DHT22;10059;59.850;10.454;2023-02-21T14:39:31;6.20;90.30
19799;DHT22;10059;59.850;10.454;2023-02-21T14:42:16;5.90;92.00
19799;DHT22;10059;59.850;10.454;2023-02-21T14:44:59;6.10;91.90
19799;DHT22;10059;59.850;10.454;2023-02-21T14:47:40;5.70;92.40
19799;DHT22;10059;59.850;10.454;2023-02-21T14:50:23;5.70;93.30
19799;DHT22;10059;59.850;10.454;2023-02-21T14:56:21;5.50;94.00
19799;DHT22;10059;59.850;10.454;2023-02-21T14:59:04;5.40;95.40
19799;DHT22;10059;59.850;10.454;2023-02-21T15:01:44;5.50;94.90
19799;DHT22;10059;59.850;10.454;2023-02-21T15:04:17;5.40;95.20
19799;DHT22;10059;59.850;10.454;2023-02-21T15:06:58;5.50;95.40
19799;DHT22;10059;59.850;10.454;2023-02-21T15:09:26;5.50;96.30
19799;DHT22;10059;59.850;10.454;2023-02-21T15:11:53;5.30;95.60
19799;DHT22;10059;59.850;10.454;2023-02-21T15:14:23;5.00;97.00
19799;DHT22;10059;59.850;10.454;2023-02-21T15:16:53;4.90;97.80
19799;DHT22;10059;59.850;10.454;2023-02-21T15:19:28;4.90;98.60
19799;DHT22;10059;59.850;10.454;2023-02-21T15:22:23;4.90;99.40
19799;DHT22;10059;59.850;10.454;2023-02-21T15:25:14;4.40;99.90
19799;DHT22;10059;59.850;10.454;2023-02-21T15:28:04;4.50;99.90
19799;DHT22;10059;59.850;10.454;2023-02-21T15:30:35;4.70;99.90
19799;DHT22;10059;59.850;10.454;2023-02-21T15:33:07;4.60;99.90
19799;DHT22;10059;59.850;10.454;2023-02-21T15:35:38;4.10;99.90
19799;DHT22;10059;59.850;10.454;2023-02-21T15:38:14;3.80;99.90
19799;DHT22;10059;59.850;10.454;2023-02-21T15:40:41;3.90;99.90
19799;DHT22;10059;59.850;10.454;2023-02-21T15:43:29;3.90;99.90
19799;DHT22;10059;59.850;10.454;2023-02-21T15:45:58;3.50;99.90
19799;DHT22;10059;59.850;10.454;2023-02-21T15:48:26;3.10;99.90
19799;DHT22;10059;59.850;10.454;2023-02-21T15:50:53;3.10;99.90
19799;DHT22;10059;59.850;10.454;2023-02-21T15:53:26;2.90;99.90
19799;DHT22;10059;59.850;10.454;2023-02-21T15:55:53;2.80;99.90
19799;DHT22;10059;59.850;10.454;2023-02-21T15:58:40;2.80;99.90
19799;DHT22;10059;59.850;10.454;2023-02-21T16:01:08;2.80;99.90
19799;DHT22;10059;59.850;10.454;2023-02-21T16:03:37;2.50;99.90
19799;DHT22;10059;59.850;10.454;2023-02-21T16:06:20;2.30;99.90
19799;DHT22;10059;59.850;10.454;2023-02-21T16:09:16;2.30;99.90
19799;DHT22;10059;59.850;10.454;2023-02-21T16:11:49;2.10;99.90
19799;DHT22;10059;59.850;10.454;2023-02-21T16:14:19;1.90;99.90
19799;DHT22;10059;59.850;10.454;2023-02-21T16:16:49;1.70;99.90
19799;DHT22;10059;59.850;10.454;2023-02-21T16:19:19;1.60;99.90